createdAt,value
2019-02-04T00:00:23.981Z,1013.2
2019-02-04T00:01:26.311Z,1013.2
2019-02-04T00:02:29.201Z,1013.2
2019-02-04T00:03:32.095Z,1013.2
2019-02-04T00:04:34.278Z,1013.2
2019-02-04T00:05:36.312Z,1013.2
2019-02-04T00:06:38.570Z,1013.2
2019-02-04T00:07:40.766Z,1013.2
2019-02-04T00:08:42.822Z,1013.2
2019-02-04T00:09:44.869Z,1013.3
2019-02-04T00:10:46.926Z,1013.2
2019-02-04T00:11:49.259Z,1013.2
2019-02-04T00:12:51.525Z,1013.2
2019-02-04T00:13:54.488Z,1013.3
2019-02-04T00:14:56.587Z,1013.3
2019-02-04T00:15:58.689Z,1013.2
2019-02-04T00:17:01.026Z,1013.2
2019-02-04T00:18:03.105Z,1013.3
2019-02-04T00:19:05.138Z,1013.2
2019-02-04T00:20:07.315Z,1013.3
2019-02-04T00:21:09.944Z,1013.2
2019-02-04T00:22:12.105Z,1013.2
2019-02-04T00:23:14.431Z,1013.2
2019-02-04T00:24:16.934Z,1013.2
2019-02-04T00:25:21.926Z,1013.3
2019-02-04T00:26:24.758Z,1013.2
2019-02-04T00:27:26.794Z,1013.3
2019-02-04T00:28:29.249Z,1013.3
2019-02-04T00:29:31.318Z,1013.3
2019-02-04T00:30:33.353Z,1013.4
2019-02-04T00:31:35.542Z,1013.3
2019-02-04T00:32:37.932Z,1013.4
2019-02-04T00:33:40.270Z,1013.4
2019-02-04T00:34:42.320Z,1013.4
2019-02-04T00:35:44.591Z,1013.3
2019-02-04T00:36:47.845Z,1013.4
2019-02-04T00:37:49.956Z,1013.4
2019-02-04T00:38:52.153Z,1013.4
2019-02-04T00:39:54.379Z,1013.4
2019-02-04T00:40:56.629Z,1013.4
2019-02-04T00:41:58.891Z,1013.4
2019-02-04T00:43:01.323Z,1013.4
2019-02-04T00:44:03.983Z,1013.4
2019-02-04T00:45:06.366Z,1013.4
2019-02-04T00:46:08.727Z,1013.4
2019-02-04T00:47:11.072Z,1013.4
2019-02-04T00:48:14.199Z,1013.4
2019-02-04T00:49:16.406Z,1013.4
2019-02-04T00:50:18.841Z,1013.4
2019-02-04T00:51:20.951Z,1013.3
2019-02-04T00:52:23.015Z,1013.3
2019-02-04T00:53:25.067Z,1013.3
2019-02-04T00:54:27.102Z,1013.4
2019-02-04T00:55:29.231Z,1013.4
2019-02-04T00:56:31.300Z,1013.4
2019-02-04T00:57:34.097Z,1013.4
2019-02-04T00:58:37.016Z,1013.4
2019-02-04T00:59:39.949Z,1013.5
2019-02-04T01:00:41.997Z,1013.4
2019-02-04T01:01:44.448Z,1013.4
2019-02-04T01:02:46.508Z,1013.4
2019-02-04T01:03:48.563Z,1013.5
2019-02-04T01:04:50.618Z,1013.5
2019-02-04T01:05:52.669Z,1013.5
2019-02-04T01:06:55.057Z,1013.5
2019-02-04T01:07:57.089Z,1013.5
2019-02-04T01:08:59.684Z,1013.5
2019-02-04T01:10:03.110Z,1013.6
2019-02-04T01:11:05.698Z,1013.6
2019-02-04T01:12:07.757Z,1013.5
2019-02-04T01:13:09.780Z,1013.6
2019-02-04T01:14:11.824Z,1013.6
2019-02-04T01:15:13.913Z,1013.6
2019-02-04T01:16:15.962Z,1013.6
2019-02-04T01:17:17.996Z,1013.6
2019-02-04T01:18:20.045Z,1013.6
2019-02-04T01:19:22.138Z,1013.6
2019-02-04T01:20:24.669Z,1013.6
2019-02-04T01:21:28.158Z,1013.5
2019-02-04T01:22:30.299Z,1013.6
2019-02-04T01:23:32.347Z,1013.6
2019-02-04T01:24:34.708Z,1013.6
2019-02-04T01:25:36.756Z,1013.7
2019-02-04T01:26:39.197Z,1013.6
2019-02-04T01:27:41.286Z,1013.7
2019-02-04T01:28:43.453Z,1013.7
2019-02-04T01:29:45.500Z,1013.6
2019-02-04T01:30:47.561Z,1013.6
2019-02-04T01:31:50.108Z,1013.6
2019-02-04T01:32:53.365Z,1013.6
2019-02-04T01:33:55.425Z,1013.7
2019-02-04T01:34:57.475Z,1013.6
2019-02-04T01:35:59.521Z,1013.6
2019-02-04T01:37:01.657Z,1013.6
2019-02-04T01:38:03.695Z,1013.6
2019-02-04T01:39:05.854Z,1013.7
2019-02-04T01:40:07.902Z,1013.7
2019-02-04T01:41:10.121Z,1013.7
2019-02-04T01:42:12.532Z,1013.7
2019-02-04T01:43:14.896Z,1013.7
2019-02-04T01:44:18.286Z,1013.8
2019-02-04T01:45:20.451Z,1013.8
2019-02-04T01:46:22.685Z,1013.9
2019-02-04T01:47:24.734Z,1013.8
2019-02-04T01:48:27.402Z,1013.9
2019-02-04T01:49:29.445Z,1013.9
2019-02-04T01:50:31.850Z,1013.9
2019-02-04T01:51:34.695Z,1013.9
2019-02-04T01:52:36.759Z,1013.9
2019-02-04T01:53:39.079Z,1014
2019-02-04T01:54:41.283Z,1013.9
2019-02-04T01:55:44.798Z,1013.9
2019-02-04T01:56:46.944Z,1014
2019-02-04T01:57:49.304Z,1014
2019-02-04T01:58:51.833Z,1014.1
2019-02-04T01:59:54.260Z,1014.1
2019-02-04T02:00:56.312Z,1014.1
2019-02-04T02:01:58.349Z,1014.1
2019-02-04T02:03:00.497Z,1014.1
2019-02-04T02:04:02.676Z,1014.2
2019-02-04T02:05:05.024Z,1014.3
2019-02-04T02:06:07.913Z,1014.2
2019-02-04T02:07:10.955Z,1014.2
2019-02-04T02:08:12.997Z,1014.2
2019-02-04T02:09:15.094Z,1014.2
2019-02-04T02:10:17.170Z,1014.3
2019-02-04T02:11:19.199Z,1014.2
2019-02-04T02:12:21.246Z,1014.2
2019-02-04T02:13:23.288Z,1014.2
2019-02-04T02:14:25.356Z,1014.2
2019-02-04T02:15:27.481Z,1014.2
2019-02-04T02:16:29.823Z,1014.2
2019-02-04T02:17:32.332Z,1014.2
2019-02-04T02:18:35.310Z,1014.2
2019-02-04T02:19:37.459Z,1014.2
2019-02-04T02:20:39.506Z,1014.2
2019-02-04T02:21:41.720Z,1014.2
2019-02-04T02:22:43.775Z,1014.2
2019-02-04T02:23:45.832Z,1014.2
2019-02-04T02:24:47.967Z,1014.2
2019-02-04T02:25:50.412Z,1014.3
2019-02-04T02:26:52.452Z,1014.3
2019-02-04T02:27:54.762Z,1014.3
2019-02-04T02:28:57.691Z,1014.2
2019-02-04T02:30:00.621Z,1014.3
2019-02-04T02:31:02.950Z,1014.3
2019-02-04T02:32:05.036Z,1014.3
2019-02-04T02:33:07.776Z,1014.3
2019-02-04T02:34:09.860Z,1014.3
2019-02-04T02:35:12.182Z,1014.3
2019-02-04T02:36:14.224Z,1014.3
2019-02-04T02:37:16.460Z,1014.3
2019-02-04T02:38:18.536Z,1014.2
2019-02-04T02:39:21.408Z,1014.2
2019-02-04T02:40:24.628Z,1014.2
2019-02-04T02:41:26.993Z,1014.2
2019-02-04T02:42:29.053Z,1014.2
2019-02-04T02:43:31.123Z,1014.2
2019-02-04T02:44:33.965Z,1014.2
2019-02-04T02:45:36.026Z,1014.3
2019-02-04T02:46:38.353Z,1014.3
2019-02-04T02:47:40.791Z,1014.3
2019-02-04T02:48:42.829Z,1014.3
2019-02-04T02:49:45.416Z,1014.3
2019-02-04T02:50:48.111Z,1014.3
2019-02-04T02:51:51.599Z,1014.3
2019-02-04T02:52:53.965Z,1014.4
2019-02-04T02:53:56.306Z,1014.4
2019-02-04T02:54:58.350Z,1014.4
2019-02-04T02:56:00.391Z,1014.4
2019-02-04T02:57:02.479Z,1014.4
2019-02-04T02:58:04.549Z,1014.4
2019-02-04T02:59:06.598Z,1014.4
2019-02-04T03:00:08.642Z,1014.4
2019-02-04T03:01:10.916Z,1014.4
2019-02-04T03:02:13.698Z,1014.4
2019-02-04T03:03:16.107Z,1014.5
2019-02-04T03:04:18.152Z,1014.5
2019-02-04T03:05:20.325Z,1014.5
2019-02-04T03:06:22.382Z,1014.5
2019-02-04T03:07:24.703Z,1014.5
2019-02-04T03:08:26.873Z,1014.5
2019-02-04T03:09:28.933Z,1014.6
2019-02-04T03:10:30.988Z,1014.6
2019-02-04T03:11:33.113Z,1014.5
2019-02-04T03:12:35.545Z,1014.6
2019-02-04T03:13:38.806Z,1014.6
2019-02-04T03:14:40.842Z,1014.6
2019-02-04T03:15:43.174Z,1014.6
2019-02-04T03:16:45.236Z,1014.7
2019-02-04T03:17:52.741Z,1014.7
2019-02-04T03:18:54.952Z,1014.7
2019-02-04T03:19:56.995Z,1014.7
2019-02-04T03:20:59.058Z,1014.7
2019-02-04T03:22:01.113Z,1014.7
2019-02-04T03:23:03.186Z,1014.7
2019-02-04T03:24:05.716Z,1014.7
2019-02-04T03:25:08.095Z,1014.7
2019-02-04T03:26:10.858Z,1014.7
2019-02-04T03:27:12.917Z,1014.8
2019-02-04T03:28:15.567Z,1014.8
2019-02-04T03:29:17.632Z,1014.8
2019-02-04T03:30:19.711Z,1014.8
2019-02-04T03:31:21.815Z,1014.8
2019-02-04T03:32:24.273Z,1014.8
2019-02-04T03:33:26.387Z,1014.8
2019-02-04T03:34:29.576Z,1014.8
2019-02-04T03:35:32.061Z,1014.9
2019-02-04T03:36:35.279Z,1014.9
2019-02-04T03:37:37.314Z,1014.9
2019-02-04T03:38:39.344Z,1014.9
2019-02-04T03:39:41.694Z,1014.8
2019-02-04T03:40:43.754Z,1014.9
2019-02-04T03:41:46.196Z,1014.9
2019-02-04T03:42:48.430Z,1014.9
2019-02-04T03:43:50.858Z,1014.8
2019-02-04T03:44:52.907Z,1014.9
2019-02-04T03:45:54.994Z,1014.9
2019-02-04T03:46:57.516Z,1014.8
2019-02-04T03:48:09.935Z,1014.9
2019-02-04T03:49:12.316Z,1014.9
2019-02-04T03:50:16.211Z,1014.9
2019-02-04T03:51:18.283Z,1014.9
2019-02-04T03:52:20.332Z,1014.9
2019-02-04T03:53:22.379Z,1014.9
2019-02-04T03:54:24.713Z,1014.9
2019-02-04T03:55:26.778Z,1014.9
2019-02-04T03:56:28.813Z,1015
2019-02-04T03:57:30.854Z,1014.9
2019-02-04T03:58:32.932Z,1014.9
2019-02-04T03:59:35.156Z,1014.9
2019-02-04T04:00:37.869Z,1014.9
2019-02-04T04:01:41.223Z,1014.9
2019-02-04T04:02:43.259Z,1014.9
2019-02-04T04:03:45.279Z,1014.9
2019-02-04T04:04:47.335Z,1015
2019-02-04T04:05:49.676Z,1014.9
2019-02-04T04:06:51.727Z,1014.9
2019-02-04T04:07:54.020Z,1014.9
2019-02-04T04:08:56.180Z,1014.9
2019-02-04T04:09:58.234Z,1014.9
2019-02-04T04:11:00.542Z,1015
2019-02-04T04:12:03.010Z,1015
2019-02-04T04:13:06.177Z,1014.9
2019-02-04T04:14:08.537Z,1015
2019-02-04T04:15:10.557Z,1015
2019-02-04T04:16:12.996Z,1015
2019-02-04T04:17:15.043Z,1015
2019-02-04T04:18:17.107Z,1015
2019-02-04T04:19:19.152Z,1015
2019-02-04T04:20:21.232Z,1015
2019-02-04T04:21:23.288Z,1015
2019-02-04T04:22:25.662Z,1015
2019-02-04T04:23:29.076Z,1015
2019-02-04T04:24:31.109Z,1015
2019-02-04T04:25:33.158Z,1014.9
2019-02-04T04:26:35.507Z,1015
2019-02-04T04:27:37.680Z,1015
2019-02-04T04:28:39.723Z,1015
2019-02-04T04:29:41.757Z,1015
2019-02-04T04:30:43.810Z,1015
2019-02-04T04:31:45.865Z,1015
2019-02-04T04:32:48.193Z,1015
2019-02-04T04:33:51.002Z,1015
2019-02-04T04:34:54.091Z,1015
2019-02-04T04:35:56.137Z,1015
2019-02-04T04:36:58.166Z,1015
2019-02-04T04:38:00.215Z,1015
2019-02-04T04:39:02.564Z,1015.1
2019-02-04T04:40:04.611Z,1015.1
2019-02-04T04:41:06.993Z,1015.1
2019-02-04T04:42:09.036Z,1015.1
2019-02-04T04:43:11.126Z,1015.1
2019-02-04T04:44:13.450Z,1015.1
2019-02-04T04:45:16.685Z,1015.1
2019-02-04T04:46:18.715Z,1015.1
2019-02-04T04:47:20.783Z,1015.1
2019-02-04T04:48:27.017Z,1015.1
2019-02-04T04:49:29.068Z,1015.2
2019-02-04T04:50:31.403Z,1015.2
2019-02-04T04:51:33.845Z,1015.2
2019-02-04T04:52:36.285Z,1015.1
2019-02-04T04:53:38.765Z,1015.1
2019-02-04T04:54:40.802Z,1015.2
2019-02-04T04:55:42.851Z,1015.2
2019-02-04T04:56:45.635Z,1015.2
2019-02-04T04:57:48.943Z,1015.2
2019-02-04T04:58:51.268Z,1015.2
2019-02-04T04:59:53.306Z,1015.2
2019-02-04T05:00:55.379Z,1015.2
2019-02-04T05:01:57.418Z,1015.2
2019-02-04T05:02:59.470Z,1015.2
2019-02-04T05:04:01.821Z,1015.2
2019-02-04T05:05:03.882Z,1015.2
2019-02-04T05:06:05.952Z,1015.2
2019-02-04T05:07:08.291Z,1015.3
2019-02-04T05:08:11.337Z,1015.2
2019-02-04T05:09:13.373Z,1015.2
2019-02-04T05:10:15.458Z,1015.2
2019-02-04T05:11:17.624Z,1015.2
2019-02-04T05:12:19.676Z,1015.2
2019-02-04T05:13:22.026Z,1015.3
2019-02-04T05:14:24.343Z,1015.2
2019-02-04T05:15:26.405Z,1015.2
2019-02-04T05:16:28.746Z,1015.2
2019-02-04T05:17:30.903Z,1015.3
2019-02-04T05:18:38.763Z,1015.3
2019-02-04T05:19:41.180Z,1015.3
2019-02-04T05:20:44.472Z,1015.2
2019-02-04T05:21:46.834Z,1015.3
2019-02-04T05:22:48.885Z,1015.3
2019-02-04T05:23:50.926Z,1015.4
2019-02-04T05:24:52.982Z,1015.3
2019-02-04T05:25:55.041Z,1015.3
2019-02-04T05:26:57.188Z,1015.3
2019-02-04T05:27:59.244Z,1015.3
2019-02-04T05:29:01.291Z,1015.3
2019-02-04T05:30:03.322Z,1015.3
2019-02-04T05:31:05.666Z,1015.3
2019-02-04T05:32:08.752Z,1015.3
2019-02-04T05:33:10.800Z,1015.3
2019-02-04T05:34:12.831Z,1015.3
2019-02-04T05:35:15.203Z,1015.3
2019-02-04T05:36:17.303Z,1015.3
2019-02-04T05:37:19.341Z,1015.2
2019-02-04T05:38:21.408Z,1015.2
2019-02-04T05:39:23.433Z,1015.2
2019-02-04T05:40:25.612Z,1015.2
2019-02-04T05:41:27.948Z,1015.2
2019-02-04T05:42:30.754Z,1015.3
2019-02-04T05:43:37.332Z,1015.3
2019-02-04T05:44:39.661Z,1015.3
2019-02-04T05:45:41.799Z,1015.3
2019-02-04T05:46:44.124Z,1015.3
2019-02-04T05:47:47.225Z,1015.3
2019-02-04T05:48:49.986Z,1015.3
2019-02-04T05:49:52.053Z,1015.4
2019-02-04T05:50:54.376Z,1015.4
2019-02-04T05:51:56.423Z,1015.3
2019-02-04T05:52:58.751Z,1015.3
2019-02-04T05:54:01.167Z,1015.4
2019-02-04T05:55:04.434Z,1015.3
2019-02-04T05:56:06.482Z,1015.3
2019-02-04T05:57:08.509Z,1015.4
2019-02-04T05:58:10.566Z,1015.3
2019-02-04T05:59:12.631Z,1015.3
2019-02-04T06:00:14.662Z,1015.3
2019-02-04T06:01:16.802Z,1015.3
2019-02-04T06:02:19.347Z,1015.3
2019-02-04T06:03:21.380Z,1015.3
2019-02-04T06:04:23.793Z,1015.3
2019-02-04T06:05:26.782Z,1015.3
2019-02-04T06:06:29.115Z,1015.3
2019-02-04T06:07:31.436Z,1015.3
2019-02-04T06:08:33.516Z,1015.3
2019-02-04T06:09:35.852Z,1015.3
2019-02-04T06:10:37.960Z,1015.3
2019-02-04T06:11:40.037Z,1015.3
2019-02-04T06:12:42.057Z,1015.4
2019-02-04T06:13:44.110Z,1015.4
2019-02-04T06:14:46.442Z,1015.4
2019-02-04T06:15:48.825Z,1015.4
2019-02-04T06:16:52.267Z,1015.4
2019-02-04T06:17:54.318Z,1015.4
2019-02-04T06:19:01.367Z,1015.4
2019-02-04T06:20:03.496Z,1015.4
2019-02-04T06:21:05.554Z,1015.5
2019-02-04T06:22:07.905Z,1015.5
2019-02-04T06:23:09.962Z,1015.5
2019-02-04T06:24:12.006Z,1015.5
2019-02-04T06:25:14.087Z,1015.5
2019-02-04T06:26:17.160Z,1015.5
2019-02-04T06:27:19.594Z,1015.5
2019-02-04T06:28:22.394Z,1015.5
2019-02-04T06:29:27.660Z,1015.5
2019-02-04T06:30:29.718Z,1015.5
2019-02-04T06:31:31.761Z,1015.5
2019-02-04T06:32:34.993Z,1015.6
2019-02-04T06:33:37.145Z,1015.5
2019-02-04T06:34:39.216Z,1015.6
2019-02-04T06:35:41.269Z,1015.6
2019-02-04T06:36:43.323Z,1015.6
2019-02-04T06:37:47.522Z,1015.6
2019-02-04T06:38:49.688Z,1015.6
2019-02-04T06:39:52.141Z,1015.6
2019-02-04T06:40:55.205Z,1015.6
2019-02-04T06:41:57.258Z,1015.5
2019-02-04T06:42:59.308Z,1015.5
2019-02-04T06:44:01.342Z,1015.5
2019-02-04T06:45:03.383Z,1015.6
2019-02-04T06:46:05.829Z,1015.5
2019-02-04T06:47:07.873Z,1015.6
2019-02-04T06:48:09.930Z,1015.5
2019-02-04T06:49:13.257Z,1015.5
2019-02-04T06:50:15.325Z,1015.5
2019-02-04T06:51:17.383Z,1015.5
2019-02-04T06:52:20.709Z,1015.5
2019-02-04T06:53:22.758Z,1015.6
2019-02-04T06:54:25.556Z,1015.5
2019-02-04T06:55:27.619Z,1015.6
2019-02-04T06:56:29.955Z,1015.6
2019-02-04T06:57:32.007Z,1015.6
2019-02-04T06:58:34.046Z,1015.6
2019-02-04T06:59:36.097Z,1015.6
2019-02-04T07:00:38.530Z,1015.6
2019-02-04T07:01:40.851Z,1015.7
2019-02-04T07:02:43.796Z,1015.6
2019-02-04T07:03:45.928Z,1015.7
2019-02-04T07:04:48.748Z,1015.6
2019-02-04T07:05:50.791Z,1015.5
2019-02-04T07:06:52.842Z,1015.6
2019-02-04T07:07:54.890Z,1015.7
2019-02-04T07:08:57.205Z,1015.6
2019-02-04T07:09:59.277Z,1015.5
2019-02-04T07:11:01.507Z,1015.5
2019-02-04T07:12:03.876Z,1015.5
2019-02-04T07:13:06.702Z,1015.5
2019-02-04T07:14:09.666Z,1015.6
2019-02-04T07:15:11.838Z,1015.5
2019-02-04T07:16:13.986Z,1015.6
2019-02-04T07:17:16.036Z,1015.6
2019-02-04T07:18:18.460Z,1015.6
2019-02-04T07:19:24.873Z,1015.6
2019-02-04T07:20:26.924Z,1015.6
2019-02-04T07:21:29.384Z,1015.5
2019-02-04T07:22:31.495Z,1015.6
2019-02-04T07:23:33.662Z,1015.5
2019-02-04T07:24:43.312Z,1015.6
2019-02-04T07:25:45.784Z,1015.6
2019-02-04T07:26:49.110Z,1015.5
2019-02-04T07:27:51.139Z,1015.4
2019-02-04T07:28:53.504Z,1015.5
2019-02-04T07:29:55.617Z,1015.5
2019-02-04T07:30:57.660Z,1015.5
2019-02-04T07:31:59.700Z,1015.5
2019-02-04T07:33:01.861Z,1015.5
2019-02-04T07:34:03.901Z,1015.5
2019-02-04T07:35:06.242Z,1015.5
2019-02-04T07:36:08.953Z,1015.5
2019-02-04T07:37:11.821Z,1015.4
2019-02-04T07:38:13.953Z,1015.5
2019-02-04T07:39:16.021Z,1015.5
2019-02-04T07:40:18.375Z,1015.5
2019-02-04T07:41:20.542Z,1015.4
2019-02-04T07:42:22.594Z,1015.4
2019-02-04T07:43:24.680Z,1015.5
2019-02-04T07:44:26.718Z,1015.5
2019-02-04T07:45:28.886Z,1015.4
2019-02-04T07:46:31.488Z,1015.4
2019-02-04T07:47:34.112Z,1015.5
2019-02-04T07:48:36.725Z,1015.5
2019-02-04T07:49:39.069Z,1015.4
2019-02-04T07:50:41.117Z,1015.5
2019-02-04T07:51:43.807Z,1015.5
2019-02-04T07:52:45.996Z,1015.5
2019-02-04T07:53:48.051Z,1015.5
2019-02-04T07:54:50.109Z,1015.4
2019-02-04T07:55:52.448Z,1015.5
2019-02-04T07:56:54.510Z,1015.5
2019-02-04T07:57:58.289Z,1015.4
2019-02-04T07:59:01.129Z,1015.4
2019-02-04T08:00:04.488Z,1015.4
2019-02-04T08:01:06.550Z,1015.5
2019-02-04T08:02:08.656Z,1015.4
2019-02-04T08:03:10.722Z,1015.4
2019-02-04T08:04:16.131Z,1015.3
2019-02-04T08:05:18.227Z,1015.3
2019-02-04T08:06:20.410Z,1015.3
2019-02-04T08:07:22.453Z,1015.3
2019-02-04T08:08:24.628Z,1015.3
2019-02-04T08:09:26.890Z,1015.3
2019-02-04T08:10:29.791Z,1015.3
2019-02-04T08:11:33.264Z,1015.3
2019-02-04T08:12:35.303Z,1015.3
2019-02-04T08:13:37.336Z,1015.3
2019-02-04T08:14:39.387Z,1015.3
2019-02-04T08:15:41.570Z,1015.3
2019-02-04T08:16:43.633Z,1015.3
2019-02-04T08:17:45.665Z,1015.3
2019-02-04T08:18:47.717Z,1015.3
2019-02-04T08:19:49.758Z,1015.3
2019-02-04T08:20:52.134Z,1015.2
2019-02-04T08:21:55.255Z,1015.2
2019-02-04T08:22:57.322Z,1015.2
2019-02-04T08:23:59.418Z,1015.2
2019-02-04T08:25:01.442Z,1015.2
2019-02-04T08:26:03.808Z,1015.1
2019-02-04T08:27:05.864Z,1015.1
2019-02-04T08:28:07.908Z,1015.1
2019-02-04T08:29:09.985Z,1015.1
2019-02-04T08:30:12.359Z,1015.1
2019-02-04T08:31:14.577Z,1015
2019-02-04T08:32:17.047Z,1015.1
2019-02-04T08:33:20.580Z,1015
2019-02-04T08:34:22.933Z,1015
2019-02-04T08:35:25.018Z,1015.1
2019-02-04T08:36:46.798Z,1015.1
2019-02-04T08:37:49.025Z,1015.2
2019-02-04T08:38:51.646Z,1015.1
2019-02-04T08:39:53.924Z,1015
2019-02-04T08:40:56.089Z,1015
2019-02-04T08:41:58.252Z,1015.1
2019-02-04T08:43:00.445Z,1015
2019-02-04T08:44:02.895Z,1015.1
2019-02-04T08:45:05.362Z,1015.1
2019-02-04T08:46:07.803Z,1015
2019-02-04T08:47:24.161Z,1015.1
2019-02-04T08:48:26.553Z,1015.1
2019-02-04T08:49:30.670Z,1015.1
2019-02-04T08:50:32.830Z,1015.1
2019-02-04T08:51:35.425Z,1015.1
2019-02-04T08:52:37.901Z,1015.1
2019-02-04T08:53:40.365Z,1015
2019-02-04T08:54:42.610Z,1015
2019-02-04T08:55:44.788Z,1015.1
2019-02-04T08:56:47.008Z,1015.1
2019-02-04T08:57:49.211Z,1015.1
2019-02-04T08:58:51.657Z,1015
2019-02-04T08:59:54.928Z,1015.1
2019-02-04T09:00:57.147Z,1015
2019-02-04T09:01:59.625Z,1015.1
2019-02-04T09:03:01.802Z,1015.2
2019-02-04T09:04:03.983Z,1015.2
2019-02-04T09:05:06.181Z,1015.1
2019-02-04T09:06:08.357Z,1015.1
2019-02-04T09:07:10.553Z,1015.2
2019-02-04T09:08:12.729Z,1015.1
2019-02-04T09:09:15.267Z,1015.2
2019-02-04T09:10:18.524Z,1015.2
2019-02-04T09:11:20.718Z,1015.2
2019-02-04T09:12:22.897Z,1015.3
2019-02-04T09:13:25.475Z,1015.3
2019-02-04T09:14:27.655Z,1015.3
2019-02-04T09:15:29.832Z,1015.3
2019-02-04T09:16:32.131Z,1015.3
2019-02-04T09:17:34.644Z,1015.2
2019-02-04T09:18:45.199Z,1015.3
2019-02-04T09:19:47.384Z,1015.3
2019-02-04T09:20:49.597Z,1015.2
2019-02-04T09:21:52.129Z,1015.3
2019-02-04T09:22:55.400Z,1015.3
2019-02-04T09:23:57.579Z,1015.3
2019-02-04T09:24:59.751Z,1015.2
2019-02-04T09:26:02.067Z,1015.2
2019-02-04T09:27:04.539Z,1015.2
2019-02-04T09:28:07.009Z,1015.2
2019-02-04T09:29:09.184Z,1015.2
2019-02-04T09:30:11.386Z,1015.2
2019-02-04T09:31:13.862Z,1015.3
2019-02-04T09:32:16.329Z,1015.2
2019-02-04T09:33:19.595Z,1015.2
2019-02-04T09:34:21.816Z,1015.2
2019-02-04T09:35:24.009Z,1015.2
2019-02-04T09:36:26.227Z,1015.3
2019-02-04T09:37:28.677Z,1015.2
2019-02-04T09:38:30.846Z,1015.3
2019-02-04T09:39:33.068Z,1015.3
2019-02-04T09:40:35.317Z,1015.3
2019-02-04T09:41:37.537Z,1015.2
2019-02-04T09:42:40.049Z,1015.2
2019-02-04T09:43:42.880Z,1015.2
2019-02-04T09:44:45.784Z,1015.3
2019-02-04T09:45:47.955Z,1015.3
2019-02-04T09:46:50.111Z,1015.2
2019-02-04T09:47:52.298Z,1015.2
2019-02-04T09:51:54.390Z,1015.2
2019-02-04T09:52:56.904Z,1015.1
2019-02-04T09:54:00.470Z,1015.2
2019-02-04T09:55:02.951Z,1015.1
2019-02-04T09:56:21.036Z,1015
2019-02-04T09:57:23.586Z,1015.2
2019-02-04T09:58:25.761Z,1015.2
2019-02-04T09:59:28.217Z,1015.2
2019-02-04T10:00:30.379Z,1015.2
2019-02-04T10:01:33.226Z,1015.1
2019-02-04T10:02:35.475Z,1015.1
2019-02-04T10:03:37.657Z,1015.1
2019-02-04T10:04:39.781Z,1015.2
2019-02-04T10:05:41.940Z,1015.2
2019-02-04T10:06:44.595Z,1015.2
2019-02-04T10:07:47.324Z,1015.3
2019-02-04T10:08:50.559Z,1015.2
2019-02-04T10:09:52.740Z,1015.2
2019-02-04T10:10:54.893Z,1015.3
2019-02-04T10:11:57.035Z,1015.3
2019-02-04T10:12:59.601Z,1015.2
2019-02-04T10:14:01.771Z,1015.3
2019-02-04T10:15:04.303Z,1015.2
2019-02-04T10:16:06.936Z,1015.2
2019-02-04T10:17:09.370Z,1015.2
2019-02-04T10:18:11.956Z,1015.2
2019-02-04T10:19:14.928Z,1015.3
2019-02-04T10:20:18.436Z,1015.3
2019-02-04T10:21:21.313Z,1015.3
2019-02-04T10:22:23.534Z,1015.2
2019-02-04T10:23:26.004Z,1015.2
2019-02-04T10:24:29.070Z,1015.3
2019-02-04T10:25:31.612Z,1015.2
2019-02-04T10:26:34.147Z,1015.3
2019-02-04T10:27:36.418Z,1015.2
2019-02-04T10:28:38.666Z,1015.1
2019-02-04T10:29:41.085Z,1015.2
2019-02-04T10:30:43.736Z,1015.3
2019-02-04T10:31:47.639Z,1015.3
2019-02-04T10:32:49.972Z,1015.1
2019-02-04T10:33:52.212Z,1015.2
2019-02-04T10:34:54.790Z,1015.2
2019-02-04T10:35:57.498Z,1015.2
2019-02-04T10:36:59.894Z,1015.2
2019-02-04T10:38:02.183Z,1015.2
2019-02-04T10:39:04.931Z,1015.2
2019-02-04T10:40:07.603Z,1015.3
2019-02-04T10:41:09.847Z,1015.2
2019-02-04T10:42:12.746Z,1015.2
2019-02-04T10:43:16.618Z,1015.2
2019-02-04T10:44:18.940Z,1015.2
2019-02-04T10:45:21.263Z,1015.2
2019-02-04T10:46:23.932Z,1015.1
2019-02-04T10:47:26.500Z,1015.2
2019-02-04T10:48:29.113Z,1015.2
2019-02-04T10:49:31.605Z,1015.3
2019-02-04T10:50:46.955Z,1015.2
2019-02-04T10:51:49.553Z,1015.2
2019-02-04T10:52:51.941Z,1015.2
2019-02-04T10:53:54.524Z,1015.2
2019-02-04T10:54:56.860Z,1015.2
2019-02-04T10:55:59.868Z,1015.3
2019-02-04T10:57:03.482Z,1015.2
2019-02-04T10:58:05.730Z,1015.1
2019-02-04T10:59:08.041Z,1015.2
2019-02-04T11:00:10.461Z,1015.3
2019-02-04T11:01:12.762Z,1015.2
2019-02-04T11:02:15.071Z,1015.3
2019-02-04T11:03:20.483Z,1015.2
2019-02-04T11:04:22.795Z,1015.3
2019-02-04T11:05:25.140Z,1015.2
2019-02-04T11:06:27.544Z,1015.2
2019-02-04T11:07:30.500Z,1015.2
2019-02-04T11:08:34.110Z,1015.3
2019-02-04T11:09:36.796Z,1015.3
2019-02-04T11:10:39.341Z,1015.2
2019-02-04T11:11:41.702Z,1015.2
2019-02-04T11:15:44.061Z,1015.1
2019-02-04T11:16:46.644Z,1015.2
2019-02-04T11:17:49.171Z,1015.1
2019-02-04T11:18:52.610Z,1015.1
2019-02-04T11:19:56.008Z,1015.1
2019-02-04T11:20:58.859Z,1015.1
2019-02-04T11:22:01.511Z,1015.1
2019-02-04T11:23:04.254Z,1015.2
2019-02-04T11:24:06.538Z,1015.2
2019-02-04T11:25:08.891Z,1015.2
2019-02-04T11:26:11.277Z,1015.1
2019-02-04T11:27:13.634Z,1015.2
2019-02-04T11:28:16.212Z,1015.2
2019-02-04T11:29:19.362Z,1015.2
2019-02-04T11:30:22.074Z,1015.2
2019-02-04T11:31:25.636Z,1015.2
2019-02-04T11:32:28.221Z,1015.2
2019-02-04T11:33:30.820Z,1015
2019-02-04T11:34:33.209Z,1015.1
2019-02-04T11:35:35.831Z,1015.1
2019-02-04T11:36:38.157Z,1015.1
2019-02-04T11:37:40.424Z,1015.2
2019-02-04T11:38:43.015Z,1015.1
2019-02-04T11:39:45.412Z,1015.1
2019-02-04T11:40:48.297Z,1015.1
2019-02-04T11:41:51.380Z,1015.1
2019-02-04T11:42:54.574Z,1015
2019-02-04T11:43:57.243Z,1015
2019-02-04T11:45:00.258Z,1015
2019-02-04T11:46:03.020Z,1015
2019-02-04T11:47:06.229Z,1015
2019-02-04T11:48:08.614Z,1015
2019-02-04T11:49:10.979Z,1015
2019-02-04T11:50:13.533Z,1015
2019-02-04T11:51:15.673Z,1015
2019-02-04T11:52:17.842Z,1015
2019-02-04T11:53:33.399Z,1015
2019-02-04T11:54:35.625Z,1015
2019-02-04T11:55:38.095Z,1015
2019-02-04T11:56:41.402Z,1015
2019-02-04T11:57:43.948Z,1014.9
2019-02-04T11:58:46.105Z,1015
2019-02-04T11:59:48.266Z,1014.9
2019-02-04T12:00:50.423Z,1014.9
2019-02-04T12:01:52.571Z,1014.9
2019-02-04T12:02:54.717Z,1014.9
2019-02-04T12:03:57.136Z,1014.9
2019-02-04T12:04:59.281Z,1014.9
2019-02-04T12:06:01.507Z,1014.8
2019-02-04T12:07:04.336Z,1014.8
2019-02-04T12:08:07.827Z,1014.8
2019-02-04T12:09:10.419Z,1014.8
2019-02-04T12:10:12.552Z,1014.9
2019-02-04T12:11:14.704Z,1014.8
2019-02-04T12:12:16.852Z,1014.8
2019-02-04T12:13:19.104Z,1014.8
2019-02-04T12:14:21.304Z,1015
2019-02-04T12:15:23.447Z,1014.8
2019-02-04T12:16:25.734Z,1014.8
2019-02-04T12:17:27.988Z,1014.8
2019-02-04T12:18:30.616Z,1014.8
2019-02-04T12:19:33.358Z,1014.8
2019-02-04T12:20:35.505Z,1014.8
2019-02-04T12:21:41.332Z,1014.9
2019-02-04T12:22:43.511Z,1014.8
2019-02-04T12:23:45.664Z,1014.8
2019-02-04T12:24:47.909Z,1014.8
2019-02-04T12:25:50.064Z,1014.8
2019-02-04T12:26:52.478Z,1014.7
2019-02-04T12:27:54.649Z,1014.8
2019-02-04T12:28:58.244Z,1014.8
2019-02-04T12:30:00.802Z,1014.8
2019-02-04T12:31:04.516Z,1014.8
2019-02-04T12:32:06.665Z,1014.8
2019-02-04T12:33:08.803Z,1014.7
2019-02-04T12:34:11.373Z,1014.7
2019-02-04T12:35:13.514Z,1014.8
2019-02-04T12:36:16.245Z,1014.7
2019-02-04T12:37:18.472Z,1014.7
2019-02-04T12:38:20.905Z,1014.8
2019-02-04T12:39:23.073Z,1014.7
2019-02-04T12:40:25.430Z,1014.7
2019-02-04T12:41:28.035Z,1014.7
2019-02-04T12:42:30.858Z,1014.7
2019-02-04T12:43:33.515Z,1014.7
2019-02-04T12:44:35.755Z,1014.8
2019-02-04T12:45:37.913Z,1014.7
2019-02-04T12:46:40.041Z,1014.8
2019-02-04T12:47:42.586Z,1014.7
2019-02-04T12:48:44.745Z,1014.7
2019-02-04T12:49:46.893Z,1014.7
2019-02-04T12:50:49.401Z,1014.8
2019-02-04T12:51:52.324Z,1014.8
2019-02-04T12:52:55.402Z,1014.7
2019-02-04T12:53:57.651Z,1014.8
2019-02-04T12:55:00.107Z,1014.7
2019-02-04T12:56:02.416Z,1014.7
2019-02-04T12:57:04.580Z,1014.7
2019-02-04T12:58:06.721Z,1014.8
2019-02-04T12:59:09.182Z,1014.8
2019-02-04T13:00:11.317Z,1014.7
2019-02-04T13:01:13.473Z,1014.7
2019-02-04T13:02:15.606Z,1014.6
2019-02-04T13:03:18.094Z,1014.7
2019-02-04T13:04:21.313Z,1014.6
2019-02-04T13:05:23.863Z,1014.6
2019-02-04T13:06:26.033Z,1014.6
2019-02-04T13:07:28.163Z,1014.5
2019-02-04T13:08:30.617Z,1014.5
2019-02-04T13:09:32.762Z,1014.5
2019-02-04T13:10:34.963Z,1014.5